Time;durP1;ratioP1;P1;durP2;ratioP2;P2;SDS_P1;SDS_P2;PMS_P1;PMS_P2;Temp;Humidity;BMP_temperature;BMP_pressure;BME280_temperature;BME280_humidity;BME280_pressure;Samples;Min_cycle;Max_cycle;Signal;HPM_P1;HPM_P2
2021/10/05 00:01:21;;;;;;;4.37;2.20;;;;;;;9.31;83.99;101710.59;5004077;28;20201;-76
2021/10/05 00:03:47;;;;;;;2.80;2.17;;;;;;;9.32;84.19;101712.34;5000173;28;20266;-77
2021/10/05 00:06:12;;;;;;;3.00;2.13;;;;;;;9.29;84.69;101718.22;5009778;28;20187;-76
2021/10/05 00:08:38;;;;;;;6.00;2.00;;;;;;;9.31;84.67;101720.81;5016484;28;20242;-77
2021/10/05 00:11:03;;;;;;;3.70;2.10;;;;;;;9.31;83.88;101710.59;5000902;28;20262;-77
2021/10/05 00:13:28;;;;;;;4.43;2.27;;;;;;;9.31;84.52;101708.06;5006294;28;20242;-77
2021/10/05 00:15:54;;;;;;;3.13;2.10;;;;;;;9.34;83.88;101703.91;5002899;28;20203;-75
2021/10/05 00:18:19;;;;;;;2.93;1.93;;;;;;;9.32;83.98;101697.91;5009792;28;20198;-78
2021/10/05 00:20:44;;;;;;;4.37;2.07;;;;;;;9.35;83.91;101699.69;5012197;28;20690;-77
2021/10/05 00:23:09;;;;;;;2.30;1.80;;;;;;;9.35;83.92;101692.03;5004517;28;20204;-77
2021/10/05 00:25:37;;;;;;;3.60;2.53;;;;;;;9.34;84.07;101692.81;5000721;28;20185;-77
2021/10/05 00:28:02;;;;;;;4.57;2.20;;;;;;;9.32;84.41;101692.78;4999783;28;20575;-78
2021/10/05 00:30:28;;;;;;;4.13;2.17;;;;;;;9.37;84.34;101695.50;4980050;28;20205;-77
2021/10/05 00:32:53;;;;;;;3.57;2.20;;;;;;;9.36;84.38;101686.94;4998128;28;20212;-77
2021/10/05 00:35:18;;;;;;;2.97;2.00;;;;;;;9.34;84.32;101688.59;5005211;28;20215;-77
2021/10/05 00:37:44;;;;;;;4.53;1.83;;;;;;;9.31;84.13;101685.91;5018716;28;20279;-77
2021/10/05 00:40:10;;;;;;;3.37;2.27;;;;;;;9.32;84.32;101687.66;5004107;28;20199;-77
2021/10/05 00:42:35;;;;;;;3.90;2.10;;;;;;;9.32;83.97;101680.00;5016142;28;20191;-77
2021/10/05 00:45:00;;;;;;;3.67;1.83;;;;;;;9.28;83.91;101674.69;4990758;28;20187;-77
2021/10/05 00:47:26;;;;;;;2.30;2.07;;;;;;;9.28;84.18;101677.25;4998379;28;20193;-78
2021/10/05 00:49:51;;;;;;;2.70;1.93;;;;;;;9.27;84.75;101673.81;5009580;28;20225;-77
2021/10/05 00:52:18;;;;;;;3.13;1.87;;;;;;;9.27;84.18;101670.41;5015171;28;20218;-77
2021/10/05 00:54:44;;;;;;;3.90;2.30;;;;;;;9.30;84.43;101671.38;4995063;28;20212;-77
2021/10/05 00:57:11;;;;;;;4.90;2.00;;;;;;;9.28;84.37;101678.13;5003731;28;20180;-76
2021/10/05 00:59:37;;;;;;;3.17;2.07;;;;;;;9.30;84.34;101671.38;5005850;28;20717;-76
2021/10/05 01:02:06;;;;;;;2.90;2.20;;;;;;;9.28;84.39;101665.38;4999359;28;20204;-77
2021/10/05 01:04:32;;;;;;;4.37;2.60;;;;;;;9.28;84.50;101665.38;4996510;28;20350;-76
2021/10/05 01:07:04;;;;;;;3.07;2.10;;;;;;;9.28;84.49;101657.69;4989618;28;20211;-76
2021/10/05 01:09:31;;;;;;;2.97;1.97;;;;;;;9.27;84.75;101658.47;5008166;28;20210;-77
2021/10/05 01:11:56;;;;;;;4.70;2.10;;;;;;;9.27;83.85;101650.81;5017466;28;20276;-77
2021/10/05 01:14:23;;;;;;;4.10;2.03;;;;;;;9.25;84.13;101647.34;5009645;28;20314;-77
2021/10/05 01:16:50;;;;;;;3.90;2.53;;;;;;;9.30;85.23;101650.09;5009153;28;20192;-76
2021/10/05 01:19:15;;;;;;;4.97;2.40;;;;;;;9.29;84.76;101641.53;4998725;28;20278;-74
2021/10/05 01:21:41;;;;;;;2.83;2.37;;;;;;;9.27;84.57;101627.81;4988050;28;20242;-78
2021/10/05 01:24:18;;;;;;;4.17;2.17;;;;;;;9.29;84.30;101626.22;5010453;28;20302;-76
2021/10/05 01:26:44;;;;;;;4.20;2.30;;;;;;;9.31;84.73;101626.28;5003547;28;20184;-76
2021/10/05 01:29:14;;;;;;;2.53;2.00;;;;;;;9.29;84.42;101613.44;5007744;28;20223;-77
2021/10/05 01:31:43;;;;;;;4.83;1.97;;;;;;;9.29;84.27;101604.88;5010841;28;20227;-77
2021/10/05 01:34:09;;;;;;;3.40;2.37;;;;;;;9.31;84.04;101609.22;4994120;28;20274;-78
2021/10/05 01:36:35;;;;;;;3.10;2.37;;;;;;;9.27;84.09;101615.03;5023536;28;20175;-75
2021/10/05 01:39:05;;;;;;;4.70;2.67;;;;;;;9.29;84.71;101617.66;5000257;28;20238;-77
2021/10/05 01:41:31;;;;;;;4.57;2.30;;;;;;;9.30;84.69;101615.16;5003600;28;20656;-77
2021/10/05 01:43:56;;;;;;;5.07;2.17;;;;;;;9.30;84.19;101614.31;5005879;28;20207;-76
2021/10/05 01:46:22;;;;;;;3.73;2.40;;;;;;;9.28;84.80;101611.69;5006014;28;20208;-77
2021/10/05 01:48:47;;;;;;;2.83;2.10;;;;;;;9.30;84.25;101615.16;4996408;28;20179;-77
2021/10/05 01:51:13;;;;;;;7.23;2.40;;;;;;;9.32;84.11;101612.66;5004237;28;20185;-77
2021/10/05 01:53:39;;;;;;;2.60;2.23;;;;;;;9.28;84.87;101606.59;4993293;28;20291;-78
2021/10/05 01:56:06;;;;;;;4.20;2.67;;;;;;;9.31;84.71;101605.81;5008882;28;20187;-77
2021/10/05 01:58:32;;;;;;;5.70;2.60;;;;;;;9.28;84.26;101595.47;5009447;28;20187;-77
2021/10/05 02:00:58;;;;;;;4.07;2.13;;;;;;;9.28;84.80;101600.59;5006416;28;20194;-78
2021/10/05 02:03:24;;;;;;;4.50;2.70;;;;;;;9.29;85.20;101589.56;4988203;28;20240;-77
2021/10/05 02:05:49;;;;;;;4.60;2.50;;;;;;;9.28;84.56;101587.81;4997579;28;20183;-77
2021/10/05 02:08:15;;;;;;;4.03;2.60;;;;;;;9.24;84.79;101584.28;4991569;28;20738;-76
2021/10/05 02:10:40;;;;;;;4.93;2.63;;;;;;;9.24;85.07;101585.97;4987201;28;20184;-78
2021/10/05 02:13:06;;;;;;;5.37;3.00;;;;;;;9.26;85.16;101584.34;4993671;28;20211;-76
2021/10/05 02:15:32;;;;;;;6.50;3.73;;;;;;;9.29;85.32;101579.31;4999505;28;20227;-77
2021/10/05 02:17:57;;;;;;;7.80;4.40;;;;;;;9.34;86.08;101572.69;5002859;28;20191;-77
2021/10/05 02:20:24;;;;;;;5.23;3.70;;;;;;;9.33;86.56;101578.63;4999832;28;20219;-75
2021/10/05 02:22:49;;;;;;;4.13;3.63;;;;;;;9.29;86.16;101582.78;4990567;28;20251;-78
2021/10/05 02:25:14;;;;;;;5.57;3.87;;;;;;;9.34;86.15;101572.69;4986985;28;20191;-77
2021/10/05 02:27:40;;;;;;;8.20;4.73;;;;;;;9.39;86.14;101573.72;5007635;28;20186;-77
2021/10/05 02:30:07;;;;;;;7.90;4.07;;;;;;;9.34;85.86;101571.03;4999333;28;20201;-77
2021/10/05 02:32:32;;;;;;;6.17;3.87;;;;;;;9.36;85.57;101571.94;4996673;28;20262;-78
2021/10/05 02:34:58;;;;;;;4.93;3.70;;;;;;;9.34;86.20;101560.81;4996735;28;20268;-78
2021/10/05 02:37:28;;;;;;;8.03;4.07;;;;;;;9.38;85.52;101567.75;5037500;28;20192;-77
2021/10/05 02:39:55;;;;;;;6.27;3.80;;;;;;;9.42;85.70;101566.19;5004896;28;20236;-77
2021/10/05 02:42:20;;;;;;;8.43;4.73;;;;;;;9.43;86.46;101561.13;5002538;28;20184;-75
2021/10/05 02:44:45;;;;;;;8.70;4.70;;;;;;;9.45;86.11;101558.63;5004622;28;20715;-77
2021/10/05 02:47:11;;;;;;;7.87;4.73;;;;;;;9.48;86.33;101562.16;5015635;28;20192;-77
2021/10/05 02:49:43;;;;;;;7.23;4.67;;;;;;;9.47;86.30;101557.88;4994463;28;20195;-77
2021/10/05 02:52:08;;;;;;;6.90;4.63;;;;;;;9.48;86.22;101556.16;5002439;28;20189;-77
2021/10/05 02:54:33;;;;;;;10.83;4.50;;;;;;;9.50;86.74;101549.44;4992957;28;20610;-76
2021/10/05 02:56:59;;;;;;;7.23;4.70;;;;;;;9.51;86.74;101551.16;5009476;28;20664;-76
2021/10/05 02:59:24;;;;;;;7.47;4.37;;;;;;;9.56;86.60;101541.97;4985964;28;20198;-77
2021/10/05 03:01:50;;;;;;;6.97;4.77;;;;;;;9.54;86.36;101531.69;5003140;28;20195;-77
2021/10/05 03:04:15;;;;;;;6.40;4.63;;;;;;;9.55;86.24;101532.56;5005211;28;20261;-77
2021/10/05 03:06:40;;;;;;;7.73;4.87;;;;;;;9.56;86.66;101531.75;4998529;28;20183;-77
2021/10/05 03:09:06;;;;;;;7.53;5.27;;;;;;;9.56;86.46;101524.06;5009394;28;20191;-76
2021/10/05 03:11:31;;;;;;;7.33;4.70;;;;;;;9.58;86.53;101523.31;5013402;28;20198;-77
2021/10/05 03:13:56;;;;;;;10.67;5.30;;;;;;;9.60;86.50;101516.56;5005179;28;20231;-78
2021/10/05 03:16:22;;;;;;;8.30;4.73;;;;;;;9.67;87.15;101515.94;5012551;28;20190;-77
2021/10/05 03:18:47;;;;;;;5.90;5.17;;;;;;;9.68;86.57;101509.16;5016688;28;20188;-77
2021/10/05 03:21:13;;;;;;;7.53;5.10;;;;;;;9.69;86.75;101500.66;5007940;28;20682;-76
2021/10/05 03:23:39;;;;;;;8.83;5.50;;;;;;;9.71;86.82;101492.22;5008086;28;20214;-77
2021/10/05 03:26:05;;;;;;;7.33;5.47;;;;;;;9.71;87.09;101487.09;4987739;28;20561;-76
2021/10/05 03:28:32;;;;;;;14.17;6.50;;;;;;;9.74;87.37;101489.78;5037011;28;20191;-76
2021/10/05 03:30:59;;;;;;;7.70;5.37;;;;;;;9.74;87.09;101479.53;4996402;28;20226;-77
2021/10/05 03:33:24;;;;;;;9.20;5.50;;;;;;;9.77;86.40;101479.63;5004469;28;20248;-77
2021/10/05 03:35:50;;;;;;;8.53;5.57;;;;;;;9.77;86.86;101471.94;5001117;28;20646;-76
2021/10/05 03:38:15;;;;;;;10.33;5.60;;;;;;;9.77;87.01;101469.41;5007382;28;20184;-76
2021/10/05 03:40:40;;;;;;;7.77;5.43;;;;;;;9.81;86.87;101471.25;5002663;28;20187;-77
2021/10/05 03:43:06;;;;;;;9.23;5.80;;;;;;;9.79;87.05;101467.78;5007700;28;20213;-76
2021/10/05 03:45:31;;;;;;;8.87;5.50;;;;;;;9.81;86.59;101465.28;5014687;28;20183;-75
2021/10/05 03:47:57;;;;;;;8.63;5.47;;;;;;;9.81;87.32;101455.88;5014271;28;20205;-76
2021/10/05 03:50:22;;;;;;;7.20;5.40;;;;;;;9.82;86.86;101460.19;5000476;28;20207;-76
2021/10/05 03:52:48;;;;;;;7.33;5.30;;;;;;;9.84;86.30;101458.56;5007900;28;20183;-77
2021/10/05 03:55:13;;;;;;;7.43;5.10;;;;;;;9.87;86.55;101461.19;4984810;28;20682;-76
2021/10/05 03:57:39;;;;;;;6.80;5.37;;;;;;;9.87;86.69;101447.56;4995263;28;20196;-76
2021/10/05 04:00:06;;;;;;;9.97;5.20;;;;;;;9.86;86.24;101456.91;4998647;28;20196;-76
2021/10/05 04:02:31;;;;;;;8.03;5.70;;;;;;;9.87;86.26;101452.66;5000304;28;20201;-76
2021/10/05 04:04:57;;;;;;;7.37;5.03;;;;;;;9.90;86.03;101463.00;4986933;28;20195;-77
2021/10/05 04:07:22;;;;;;;7.17;5.73;;;;;;;9.91;86.38;101460.47;4984833;28;20614;-77
2021/10/05 04:09:47;;;;;;;8.63;5.43;;;;;;;9.91;86.81;101450.25;4993671;28;20665;-76
2021/10/05 04:12:13;;;;;;;8.37;5.70;;;;;;;9.90;86.24;101451.06;5001967;28;20193;-76
2021/10/05 04:14:38;;;;;;;7.13;4.93;;;;;;;9.88;86.68;101451.84;5014293;28;20230;-76
2021/10/05 04:17:04;;;;;;;6.53;4.93;;;;;;;9.90;86.32;101448.50;4999200;28;20533;-77
2021/10/05 04:19:29;;;;;;;7.57;5.50;;;;;;;9.92;85.93;101446.00;5005586;28;20283;-78
2021/10/05 04:21:55;;;;;;;6.73;5.17;;;;;;;9.91;86.07;101434.03;4992951;28;20234;-77
2021/10/05 04:24:20;;;;;;;6.93;5.43;;;;;;;9.91;85.87;101440.00;4998520;28;20575;-77
2021/10/05 04:26:45;;;;;;;9.20;5.60;;;;;;;9.89;86.75;101430.56;4995002;28;20199;-77
2021/10/05 04:29:10;;;;;;;6.90;5.20;;;;;;;9.88;86.12;101433.94;5003127;28;20284;-77
2021/10/05 04:31:37;;;;;;;7.47;5.13;;;;;;;9.87;86.00;101427.09;5027686;28;20275;-77
2021/10/05 04:34:03;;;;;;;7.07;5.70;;;;;;;9.88;86.11;101424.59;5003369;28;20548;-77
2021/10/05 04:36:29;;;;;;;7.70;6.00;;;;;;;9.87;86.03;101421.97;5031622;28;20189;-76
2021/10/05 04:38:54;;;;;;;11.30;8.60;;;;;;;9.87;86.20;101421.97;4989645;28;20175;-76
2021/10/05 04:41:20;;;;;;;16.37;13.60;;;;;;;9.87;86.45;101420.25;5004213;28;20191;-76
2021/10/05 04:43:45;;;;;;;20.90;15.80;;;;;;;9.87;86.39;101409.19;5015623;28;20211;-76
2021/10/05 04:46:10;;;;;;;19.20;17.20;;;;;;;9.89;85.94;101410.97;4986602;28;20271;-76
2021/10/05 04:48:35;;;;;;;17.17;15.47;;;;;;;9.89;85.87;101410.97;5006478;28;20215;-76
2021/10/05 04:51:01;;;;;;;12.83;10.83;;;;;;;9.90;86.38;101411.84;5001470;28;20229;-76
2021/10/05 04:53:26;;;;;;;16.40;10.97;;;;;;;9.84;86.24;101401.41;4995238;28;20227;-78
2021/10/05 04:55:51;;;;;;;10.23;8.87;;;;;;;9.83;86.33;101397.13;5002638;28;20228;-76
2021/10/05 04:58:19;;;;;;;9.53;8.63;;;;;;;9.80;86.63;101395.34;5004408;28;20187;-76
2021/10/05 05:00:45;;;;;;;11.17;7.60;;;;;;;9.80;86.15;101387.66;5015778;28;20525;-77
2021/10/05 05:03:10;;;;;;;7.67;6.63;;;;;;;9.82;86.22;101380.03;4998223;28;20234;-77
2021/10/05 05:05:35;;;;;;;7.80;6.50;;;;;;;9.84;86.64;101384.38;4993625;28;20671;-76
2021/10/05 05:08:02;;;;;;;8.00;6.20;;;;;;;9.84;86.51;101384.38;5000142;28;20214;-77
2021/10/05 05:10:28;;;;;;;11.57;8.07;;;;;;;9.84;86.65;101376.72;4996358;28;20207;-77
2021/10/05 05:12:54;;;;;;;9.23;7.80;;;;;;;9.84;87.04;101384.38;4995157;28;20266;-78
2021/10/05 05:15:20;;;;;;;8.40;6.90;;;;;;;9.87;87.07;101383.59;4994891;28;20704;-77
2021/10/05 05:17:45;;;;;;;8.80;7.23;;;;;;;9.88;86.76;101375.09;4994706;28;20207;-77
2021/10/05 05:20:10;;;;;;;10.90;8.33;;;;;;;9.91;87.02;101377.78;4994068;28;20191;-77
2021/10/05 05:22:36;;;;;;;8.47;7.03;;;;;;;9.93;86.92;101366.75;4994010;28;20203;-77
2021/10/05 05:25:03;;;;;;;8.90;7.17;;;;;;;9.93;87.25;101369.31;4994561;28;20180;-76
2021/10/05 05:27:28;;;;;;;9.60;7.53;;;;;;;9.96;87.27;101371.94;4992972;28;20184;-76
2021/10/05 05:29:54;;;;;;;8.50;6.80;;;;;;;10.01;88.26;101364.44;4995910;28;20203;-77
2021/10/05 05:32:19;;;;;;;9.43;7.30;;;;;;;10.01;87.47;101357.63;4993340;28;20195;-76
2021/10/05 05:34:44;;;;;;;10.13;7.60;;;;;;;10.02;87.86;101356.81;4993890;28;20227;-77
2021/10/05 05:37:09;;;;;;;10.67;7.57;;;;;;;10.06;87.47;101351.00;4989432;28;20197;-76
2021/10/05 05:39:39;;;;;;;11.20;8.67;;;;;;;10.08;87.64;101351.91;5011225;28;20187;-76
2021/10/05 05:42:10;;;;;;;12.00;8.87;;;;;;;10.08;88.24;101346.78;4972392;28;20232;-76
2021/10/05 05:44:35;;;;;;;10.17;7.30;;;;;;;10.11;87.66;101357.13;4982557;28;20311;-77
2021/10/05 05:47:00;;;;;;;10.03;9.03;;;;;;;10.12;87.58;101353.72;4990665;28;20279;-77
2021/10/05 05:49:26;;;;;;;10.03;8.40;;;;;;;10.14;87.27;101343.53;4976670;28;20215;-76
2021/10/05 05:51:51;;;;;;;11.57;7.60;;;;;;;10.15;87.29;101351.25;4993927;28;20208;-79
2021/10/05 05:54:17;;;;;;;8.77;6.80;;;;;;;10.16;87.22;101342.75;4993141;28;20220;-76
2021/10/05 05:56:42;;;;;;;9.23;6.53;;;;;;;10.19;86.74;101344.53;4992725;28;20196;-78
2021/10/05 05:59:08;;;;;;;10.43;7.60;;;;;;;10.20;87.72;101341.16;4977395;28;20172;-77
2021/10/05 06:01:33;;;;;;;8.17;6.70;;;;;;;10.19;87.09;101335.16;4990216;28;20202;-76
2021/10/05 06:04:00;;;;;;;9.03;6.03;;;;;;;10.22;87.17;101332.69;4994047;28;20224;-78
2021/10/05 06:06:25;;;;;;;7.83;6.37;;;;;;;10.25;87.09;101342.13;4992752;28;20195;-75
2021/10/05 06:08:51;;;;;;;8.70;6.50;;;;;;;10.27;86.93;101336.25;4994664;28;20572;-77
2021/10/05 06:11:18;;;;;;;7.40;6.10;;;;;;;10.27;86.90;101341.34;4993355;28;20200;-76
2021/10/05 06:13:46;;;;;;;7.07;6.17;;;;;;;10.31;86.50;101340.63;4992512;28;20206;-77
2021/10/05 06:16:11;;;;;;;10.10;6.80;;;;;;;10.34;86.92;101347.53;4994046;28;20202;-77
2021/10/05 06:18:37;;;;;;;9.07;6.97;;;;;;;10.35;86.30;101342.44;4979350;28;20566;-78
2021/10/05 06:21:02;;;;;;;8.43;6.73;;;;;;;10.36;86.57;101339.06;4974665;28;20188;-77
2021/10/05 06:23:27;;;;;;;8.33;6.50;;;;;;;10.39;86.04;101341.72;4989120;28;20308;-76
2021/10/05 06:25:54;;;;;;;9.33;6.93;;;;;;;10.43;86.37;101343.53;4974219;28;20200;-77
2021/10/05 06:28:21;;;;;;;7.93;6.70;;;;;;;10.46;86.76;101343.59;4989237;28;20220;-78
2021/10/05 06:30:46;;;;;;;9.23;6.93;;;;;;;10.50;87.35;101348.00;4989306;28;20192;-78
2021/10/05 06:33:12;;;;;;;9.67;6.83;;;;;;;10.53;87.11;101352.31;4974383;28;20263;-76
2021/10/05 06:35:37;;;;;;;11.77;6.97;;;;;;;10.54;87.81;101347.25;4974535;28;20225;-77
2021/10/05 06:38:02;;;;;;;7.87;6.03;;;;;;;10.58;88.31;101348.19;4984856;28;20195;-77
2021/10/05 06:40:31;;;;;;;10.40;6.67;;;;;;;10.62;87.35;101343.22;4978995;28;20223;-77
2021/10/05 06:42:56;;;;;;;8.17;6.93;;;;;;;10.66;87.62;101342.47;4958595;28;20303;-76
2021/10/05 06:45:22;;;;;;;8.33;6.70;;;;;;;10.71;87.50;101345.16;4974219;28;20420;-78
2021/10/05 06:47:48;;;;;;;11.63;7.87;;;;;;;10.75;87.10;101346.97;4973865;28;20196;-76
2021/10/05 06:50:15;;;;;;;8.67;6.50;;;;;;;10.78;87.73;101353.03;4974384;28;20212;-77
2021/10/05 06:52:41;;;;;;;8.90;7.07;;;;;;;10.82;87.37;101353.97;4957226;28;20193;-77
2021/10/05 06:55:07;;;;;;;8.83;6.90;;;;;;;10.86;87.21;101345.53;4954537;29;20216;-79
2021/10/05 06:57:32;;;;;;;12.23;6.73;;;;;;;10.89;86.88;101335.38;4954191;28;20197;-77
2021/10/05 06:59:58;;;;;;;10.50;7.30;;;;;;;10.93;87.12;101338.03;4956400;28;20209;-77
2021/10/05 07:02:23;;;;;;;8.57;7.57;;;;;;;10.97;87.29;101339.88;4955380;28;20181;-78
2021/10/05 07:04:49;;;;;;;11.13;7.73;;;;;;;11.00;87.30;101345.06;4955649;29;20594;-77
2021/10/05 07:07:14;;;;;;;9.47;7.20;;;;;;;11.02;87.00;101335.72;4955456;28;20189;-77
2021/10/05 07:09:40;;;;;;;10.80;7.47;;;;;;;11.09;86.98;101342.75;4956360;28;20195;-76
2021/10/05 07:12:05;;;;;;;9.13;7.47;;;;;;;11.23;86.77;101340.50;4955562;28;20592;-77
2021/10/05 07:14:31;;;;;;;9.93;6.70;;;;;;;11.31;86.40;101345.03;4953467;29;20268;-78
2021/10/05 07:16:56;;;;;;;11.07;7.23;;;;;;;11.36;86.10;101342.56;4953018;28;20185;-76
2021/10/05 07:19:21;;;;;;;8.60;7.33;;;;;;;11.44;85.97;101333.34;4953866;29;20836;-76
2021/10/05 07:21:47;;;;;;;9.17;6.23;;;;;;;11.49;85.43;101329.19;4986264;28;20752;-76
2021/10/05 07:24:12;;;;;;;10.27;7.80;;;;;;;11.49;85.00;101324.94;4955270;28;20706;-77
2021/10/05 07:26:37;;;;;;;8.43;7.20;;;;;;;11.55;85.39;101319.06;4955067;28;20215;-77
2021/10/05 07:29:03;;;;;;;11.43;7.27;;;;;;;11.57;85.04;101320.00;4955167;28;20215;-77
2021/10/05 07:31:31;;;;;;;11.07;7.60;;;;;;;11.53;85.46;101318.19;4956180;28;20185;-77
2021/10/05 07:33:56;;;;;;;10.00;7.67;;;;;;;11.52;85.32;101313.88;4970209;28;20568;-77
2021/10/05 07:36:21;;;;;;;10.00;8.20;;;;;;;11.54;85.33;101314.78;4987594;28;20208;-77
2021/10/05 07:38:47;;;;;;;10.80;8.30;;;;;;;11.56;85.08;101308.00;4982424;28;20191;-78
2021/10/05 07:41:12;;;;;;;9.93;8.07;;;;;;;11.56;85.03;101311.41;4972380;28;20192;-76
2021/10/05 07:43:38;;;;;;;11.10;7.97;;;;;;;11.58;84.70;101306.31;4955768;28;20268;-76
2021/10/05 07:46:04;;;;;;;13.77;8.90;;;;;;;11.63;85.05;101305.66;4975603;28;20204;-75
2021/10/05 07:48:29;;;;;;;11.37;8.93;;;;;;;11.63;84.83;101297.06;4976390;28;20200;-77
2021/10/05 07:50:55;;;;;;;12.80;8.97;;;;;;;11.63;84.45;101292.81;4975873;28;20192;-77
2021/10/05 07:53:20;;;;;;;11.37;8.63;;;;;;;11.65;85.15;101291.13;4992253;28;20208;-77
2021/10/05 07:55:45;;;;;;;10.27;8.80;;;;;;;11.67;84.72;101286.03;4993492;28;20231;-76
2021/10/05 07:58:11;;;;;;;10.93;8.67;;;;;;;11.75;84.28;101289.66;4993780;28;20195;-76
2021/10/05 08:00:36;;;;;;;11.17;8.23;;;;;;;11.77;84.30;101280.28;4977534;28;20204;-77
2021/10/05 08:03:02;;;;;;;13.57;9.33;;;;;;;11.78;84.78;101277.75;4989316;28;20701;-77
2021/10/05 08:05:30;;;;;;;9.80;8.43;;;;;;;11.81;84.62;101271.81;4974592;28;20224;-76
2021/10/05 08:07:57;;;;;;;11.20;8.47;;;;;;;11.80;84.49;101272.66;4972531;28;20189;-77
2021/10/05 08:10:23;;;;;;;11.20;9.37;;;;;;;11.87;84.67;101264.22;4976147;28;20193;-77
2021/10/05 08:12:48;;;;;;;11.20;8.83;;;;;;;11.83;84.85;101260.75;4975776;28;20268;-78
2021/10/05 08:15:13;;;;;;;12.07;9.27;;;;;;;11.86;85.23;101252.25;4984624;28;20215;-77
2021/10/05 08:17:39;;;;;;;8.77;7.73;;;;;;;11.85;85.23;101248.81;4981013;28;20545;-76
2021/10/05 08:20:05;;;;;;;12.73;8.60;;;;;;;11.95;84.90;101243.06;4979232;28;20564;-77
2021/10/05 08:22:30;;;;;;;12.07;9.03;;;;;;;11.94;85.17;101248.16;4993233;28;20195;-77
2021/10/05 08:24:56;;;;;;;13.23;9.00;;;;;;;11.87;85.62;101246.28;4993046;28;20197;-77
2021/10/05 08:27:21;;;;;;;9.80;8.80;;;;;;;11.90;85.59;101247.19;5004701;28;20192;-77
2021/10/05 08:29:48;;;;;;;10.43;8.77;;;;;;;11.94;85.76;101237.88;4997660;28;20661;-77
2021/10/05 08:32:15;;;;;;;10.30;8.87;;;;;;;11.92;85.66;101230.16;4997173;28;20195;-78
2021/10/05 08:34:41;;;;;;;11.50;9.53;;;;;;;11.93;85.73;101234.44;4984104;28;20223;-78
2021/10/05 08:37:07;;;;;;;11.67;9.23;;;;;;;11.94;86.09;101237.88;4996466;28;20218;-76
2021/10/05 08:39:33;;;;;;;11.73;9.97;;;;;;;11.95;86.27;101231.91;4998108;28;20192;-77
2021/10/05 08:42:00;;;;;;;11.80;9.80;;;;;;;12.01;85.92;101226.88;4997487;28;20588;-77
2021/10/05 08:44:26;;;;;;;11.73;10.03;;;;;;;11.99;86.23;101223.44;4986347;28;20239;-78
2021/10/05 08:46:54;;;;;;;11.63;9.93;;;;;;;12.03;86.65;101218.38;4996162;28;20196;-78
2021/10/05 08:49:20;;;;;;;13.10;10.10;;;;;;;12.03;86.68;101213.25;4994441;28;20599;-77
2021/10/05 08:51:46;;;;;;;12.97;10.00;;;;;;;12.03;87.00;101215.81;5008598;28;20250;-78
2021/10/05 08:54:13;;;;;;;12.40;9.97;;;;;;;12.08;87.08;101210.78;4978161;28;20220;-77
2021/10/05 08:56:40;;;;;;;13.10;10.00;;;;;;;12.09;86.53;101199.66;4995966;28;20188;-78
2021/10/05 08:59:06;;;;;;;13.63;10.97;;;;;;;12.11;86.86;101200.56;4996743;28;20212;-78
2021/10/05 09:01:34;;;;;;;15.73;10.10;;;;;;;12.11;87.09;101200.56;4979738;28;20660;-77
2021/10/05 09:04:00;;;;;;;14.07;10.53;;;;;;;12.17;87.31;101193.81;4994096;28;20232;-76
2021/10/05 09:06:25;;;;;;;13.57;10.17;;;;;;;12.18;86.55;101187.00;4995900;28;20283;-77
2021/10/05 09:08:53;;;;;;;11.40;9.40;;;;;;;12.22;86.61;101187.06;4978759;28;20236;-78
2021/10/05 09:11:20;;;;;;;13.50;10.43;;;;;;;12.22;86.20;101189.63;4978751;28;20639;-77
2021/10/05 09:13:49;;;;;;;13.67;10.47;;;;;;;12.23;86.49;101178.56;4992738;28;20231;-77
2021/10/05 09:16:26;;;;;;;12.93;10.97;;;;;;;12.27;87.23;101187.16;4991716;28;20189;-76
2021/10/05 09:19:00;;;;;;;12.70;10.83;;;;;;;12.20;87.19;101178.50;4992159;28;20199;-78
2021/10/05 09:21:38;;;;;;;13.10;10.57;;;;;;;12.20;87.22;101175.94;4975741;28;20199;-78
2021/10/05 09:24:14;;;;;;;14.30;11.57;;;;;;;12.19;87.27;101174.19;4994790;28;20227;-78
2021/10/05 09:26:42;;;;;;;14.27;11.30;;;;;;;12.25;87.45;101171.75;4995048;28;20183;-76
2021/10/05 09:29:20;;;;;;;12.73;11.33;;;;;;;12.28;87.23;101166.66;4995425;28;20219;-78
2021/10/05 09:31:57;;;;;;;12.70;9.87;;;;;;;12.29;86.92;101158.13;4988021;28;20179;-77
2021/10/05 09:34:40;;;;;;;12.43;9.83;;;;;;;12.34;87.21;101161.63;5012751;28;20231;-78
2021/10/05 09:37:16;;;;;;;11.30;9.13;;;;;;;12.36;87.08;101159.09;5000352;28;20188;-77
2021/10/05 09:40:00;;;;;;;11.07;8.73;;;;;;;12.32;87.04;101152.16;4995819;28;20834;-77
2021/10/05 09:42:36;;;;;;;10.60;7.80;;;;;;;12.27;86.90;101157.25;4965570;28;20200;-77
2021/10/05 09:45:08;;;;;;;11.77;8.23;;;;;;;12.31;87.62;101147.88;4979926;28;20643;-77
2021/10/05 09:47:45;;;;;;;12.03;7.13;;;;;;;12.28;87.17;101153.81;5007908;28;20701;-77
2021/10/05 09:50:21;;;;;;;9.43;6.53;;;;;;;12.34;87.20;101145.34;4977194;28;20624;-78
2021/10/05 09:53:01;;;;;;;7.87;5.67;;;;;;;12.31;86.71;101151.28;4996790;28;20701;-77
2021/10/05 09:55:29;;;;;;;8.83;5.50;;;;;;;12.18;87.39;101151.94;4995918;28;20200;-76
2021/10/05 09:57:55;;;;;;;8.83;5.83;;;;;;;12.22;86.92;101143.44;4997180;28;20173;-78
2021/10/05 10:00:23;;;;;;;7.97;5.70;;;;;;;12.26;87.50;101142.66;5012814;28;20192;-78
2021/10/05 10:02:49;;;;;;;7.57;5.17;;;;;;;12.33;87.43;101138.47;5013418;28;20184;-79
2021/10/05 10:05:21;;;;;;;6.87;5.43;;;;;;;12.38;87.11;101129.16;4996018;28;20204;-78
2021/10/05 10:07:49;;;;;;;6.70;5.37;;;;;;;12.31;87.53;101122.19;4979936;28;20809;-78
2021/10/05 10:10:26;;;;;;;9.43;5.47;;;;;;;12.41;87.16;101117.25;5012390;28;20214;-77
2021/10/05 10:12:54;;;;;;;6.53;4.57;;;;;;;12.47;86.25;101122.47;4997631;28;20208;-76
2021/10/05 10:15:24;;;;;;;7.43;4.77;;;;;;;12.52;86.15;101125.09;4995110;28;20277;-78
2021/10/05 10:17:49;;;;;;;7.57;5.10;;;;;;;12.48;86.60;101123.31;4997407;28;20190;-78
2021/10/05 10:20:26;;;;;;;6.63;4.50;;;;;;;12.36;86.91;101123.13;5011789;28;20662;-77
2021/10/05 10:22:53;;;;;;;5.87;4.87;;;;;;;12.34;86.62;101120.53;4995759;28;20231;-77
2021/10/05 10:25:33;;;;;;;7.70;5.13;;;;;;;12.48;86.59;101118.19;4996706;28;20191;-78
2021/10/05 10:28:13;;;;;;;6.40;4.83;;;;;;;12.47;86.88;101119.03;4995530;28;20187;-78
2021/10/05 10:30:49;;;;;;;7.57;4.77;;;;;;;12.43;86.71;101110.41;4995955;28;20196;-78
2021/10/05 10:33:15;;;;;;;6.07;4.90;;;;;;;12.44;86.19;101107.00;4994273;28;20294;-78
2021/10/05 10:35:52;;;;;;;6.53;5.23;;;;;;;12.44;86.54;101108.72;5003329;28;20586;-78
2021/10/05 10:38:26;;;;;;;6.43;5.20;;;;;;;12.44;86.71;101109.56;4998155;28;20219;-77
2021/10/05 10:40:52;;;;;;;5.33;4.60;;;;;;;12.48;86.73;101108.78;4997176;28;20634;-78
2021/10/05 10:43:20;;;;;;;6.53;5.53;;;;;;;12.54;86.99;101093.47;4986691;28;20303;-77
2021/10/05 10:45:54;;;;;;;6.57;4.70;;;;;;;12.56;86.88;101091.78;4997435;28;20192;-77
2021/10/05 10:48:36;;;;;;;6.53;4.93;;;;;;;12.57;86.48;101084.94;4996080;28;20616;-77
2021/10/05 10:51:11;;;;;;;5.13;4.27;;;;;;;12.59;86.34;101078.97;4966111;28;20262;-77
2021/10/05 10:53:39;;;;;;;6.17;4.23;;;;;;;12.69;86.32;101067.13;5008137;28;20216;-78
2021/10/05 10:56:05;;;;;;;5.47;4.13;;;;;;;12.68;86.66;101065.41;4991339;28;20212;-78
2021/10/05 10:58:41;;;;;;;7.63;4.30;;;;;;;12.80;86.33;101065.56;4976444;28;20208;-78
2021/10/05 11:01:14;;;;;;;6.33;4.43;;;;;;;12.90;86.21;101060.59;5008351;28;20196;-78
2021/10/05 11:03:40;;;;;;;4.97;3.80;;;;;;;12.92;85.96;101065.75;4980789;28;20661;-78
2021/10/05 11:06:17;;;;;;;4.97;3.67;;;;;;;13.04;84.86;101063.38;4990957;28;20193;-78
2021/10/05 11:08:58;;;;;;;4.37;3.30;;;;;;;13.10;84.97;101053.16;4972499;28;20232;-77
2021/10/05 11:11:45;;;;;;;5.63;3.47;;;;;;;12.95;85.19;101048.66;4957864;28;20312;-78
2021/10/05 11:14:19;;;;;;;6.00;3.40;;;;;;;13.02;84.34;101044.50;4974163;28;20583;-77
2021/10/05 11:16:53;;;;;;;4.17;3.20;;;;;;;13.07;85.20;101042.00;4973680;28;20744;-77
2021/10/05 11:19:18;;;;;;;4.03;3.50;;;;;;;13.15;84.98;101041.22;4973989;28;20217;-78
2021/10/05 11:21:49;;;;;;;5.43;3.20;;;;;;;12.92;84.70;101042.63;4975501;28;20185;-78
2021/10/05 11:24:16;;;;;;;5.47;3.40;;;;;;;13.05;84.79;101036.81;4957233;28;20279;-77
2021/10/05 11:26:48;;;;;;;3.93;3.27;;;;;;;12.99;85.07;101041.03;4964144;28;20194;-77